sensor_id;sensor_type;location;lat;lon;timestamp;temperature;humidity
75022;SHT31;63583;49.976;20.182;2023-10-31T00:02:14;14.01;83.80
75022;SHT31;63583;49.976;20.182;2023-10-31T00:04:40;13.98;83.79
75022;SHT31;63583;49.976;20.182;2023-10-31T00:07:05;13.90;84.04
75022;SHT31;63583;49.976;20.182;2023-10-31T00:09:31;13.88;84.00
75022;SHT31;63583;49.976;20.182;2023-10-31T00:11:58;14.01;83.64
75022;SHT31;63583;49.976;20.182;2023-10-31T00:14:24;14.04;83.38
75022;SHT31;63583;49.976;20.182;2023-10-31T00:16:50;14.01;83.40
75022;SHT31;63583;49.976;20.182;2023-10-31T00:19:16;14.12;82.85
75022;SHT31;63583;49.976;20.182;2023-10-31T00:21:41;14.24;82.18
75022;SHT31;63583;49.976;20.182;2023-10-31T00:24:07;14.27;81.93
75022;SHT31;63583;49.976;20.182;2023-10-31T00:26:33;14.29;81.68
75022;SHT31;63583;49.976;20.182;2023-10-31T00:28:58;14.29;81.56
75022;SHT31;63583;49.976;20.182;2023-10-31T00:31:24;14.22;81.70
75022;SHT31;63583;49.976;20.182;2023-10-31T00:33:50;14.37;81.10
75022;SHT31;63583;49.976;20.182;2023-10-31T00:36:15;14.48;80.50
75022;SHT31;63583;49.976;20.182;2023-10-31T00:38:41;14.48;80.39
75022;SHT31;63583;49.976;20.182;2023-10-31T00:41:07;14.48;80.25
75022;SHT31;63583;49.976;20.182;2023-10-31T00:43:33;14.56;79.43
75022;SHT31;63583;49.976;20.182;2023-10-31T00:45:58;14.68;78.93
75022;SHT31;63583;49.976;20.182;2023-10-31T00:48:24;14.71;78.86
75022;SHT31;63583;49.976;20.182;2023-10-31T00:50:50;14.74;78.52
75022;SHT31;63583;49.976;20.182;2023-10-31T00:53:16;14.80;78.39
75022;SHT31;63583;49.976;20.182;2023-10-31T00:55:42;14.72;78.49
75022;SHT31;63583;49.976;20.182;2023-10-31T00:58:08;14.71;79.20
75022;SHT31;63583;49.976;20.182;2023-10-31T01:00:34;14.68;79.15
75022;SHT31;63583;49.976;20.182;2023-10-31T01:03:00;14.65;78.87
75022;SHT31;63583;49.976;20.182;2023-10-31T01:05:26;14.50;80.16
75022;SHT31;63583;49.976;20.182;2023-10-31T01:07:54;14.40;80.88
75022;SHT31;63583;49.976;20.182;2023-10-31T01:10:20;14.29;81.35
75022;SHT31;63583;49.976;20.182;2023-10-31T01:12:46;14.12;81.77
75022;SHT31;63583;49.976;20.182;2023-10-31T01:15:12;14.09;82.26
75022;SHT31;63583;49.976;20.182;2023-10-31T01:17:38;14.01;82.31
75022;SHT31;63583;49.976;20.182;2023-10-31T01:20:04;13.95;82.42
75022;SHT31;63583;49.976;20.182;2023-10-31T01:22:30;13.90;82.62
75022;SHT31;63583;49.976;20.182;2023-10-31T01:24:56;13.94;82.61
75022;SHT31;63583;49.976;20.182;2023-10-31T01:27:22;13.55;84.49
75022;SHT31;63583;49.976;20.182;2023-10-31T01:29:48;13.38;85.12
75022;SHT31;63583;49.976;20.182;2023-10-31T01:32:13;13.33;85.54
75022;SHT31;63583;49.976;20.182;2023-10-31T01:34:39;13.26;85.76
75022;SHT31;63583;49.976;20.182;2023-10-31T01:37:05;13.17;86.19
75022;SHT31;63583;49.976;20.182;2023-10-31T01:39:31;13.14;85.99
75022;SHT31;63583;49.976;20.182;2023-10-31T01:41:56;13.20;85.43
75022;SHT31;63583;49.976;20.182;2023-10-31T01:44:22;13.38;84.62
75022;SHT31;63583;49.976;20.182;2023-10-31T01:46:48;13.41;84.48
75022;SHT31;63583;49.976;20.182;2023-10-31T01:49:14;13.44;84.48
75022;SHT31;63583;49.976;20.182;2023-10-31T01:51:40;13.47;84.26
75022;SHT31;63583;49.976;20.182;2023-10-31T01:54:08;13.50;83.46
75022;SHT31;63583;49.976;20.182;2023-10-31T01:56:34;13.61;83.22
75022;SHT31;63583;49.976;20.182;2023-10-31T01:59:00;13.98;80.79
75022;SHT31;63583;49.976;20.182;2023-10-31T02:01:27;14.08;80.50
75022;SHT31;63583;49.976;20.182;2023-10-31T02:03:55;14.06;80.49
75022;SHT31;63583;49.976;20.182;2023-10-31T02:06:21;14.08;80.47
75022;SHT31;63583;49.976;20.182;2023-10-31T02:08:48;14.12;80.20
75022;SHT31;63583;49.976;20.182;2023-10-31T02:11:13;14.22;79.90
75022;SHT31;63583;49.976;20.182;2023-10-31T02:13:39;14.19;80.23
75022;SHT31;63583;49.976;20.182;2023-10-31T02:16:05;14.37;78.37
75022;SHT31;63583;49.976;20.182;2023-10-31T02:18:32;14.36;78.07
75022;SHT31;63583;49.976;20.182;2023-10-31T02:20:58;14.32;78.96
75022;SHT31;63583;49.976;20.182;2023-10-31T02:23:24;14.33;79.73
75022;SHT31;63583;49.976;20.182;2023-10-31T02:25:49;14.19;81.03
75022;SHT31;63583;49.976;20.182;2023-10-31T02:28:15;14.22;81.07
75022;SHT31;63583;49.976;20.182;2023-10-31T02:30:41;14.13;80.02
75022;SHT31;63583;49.976;20.182;2023-10-31T02:33:07;14.02;79.89
75022;SHT31;63583;49.976;20.182;2023-10-31T02:35:33;13.99;79.91
75022;SHT31;63583;49.976;20.182;2023-10-31T02:37:58;13.98;79.89
75022;SHT31;63583;49.976;20.182;2023-10-31T02:40:24;14.06;79.28
75022;SHT31;63583;49.976;20.182;2023-10-31T02:42:50;14.08;79.10
75022;SHT31;63583;49.976;20.182;2023-10-31T02:45:16;14.05;79.49
75022;SHT31;63583;49.976;20.182;2023-10-31T02:47:42;13.95;79.69
75022;SHT31;63583;49.976;20.182;2023-10-31T02:50:07;13.98;78.65
75022;SHT31;63583;49.976;20.182;2023-10-31T02:52:33;14.29;77.17
75022;SHT31;63583;49.976;20.182;2023-10-31T02:54:59;14.53;75.19
75022;SHT31;63583;49.976;20.182;2023-10-31T02:57:25;14.53;75.00
75022;SHT31;63583;49.976;20.182;2023-10-31T02:59:50;14.51;75.17
75022;SHT31;63583;49.976;20.182;2023-10-31T03:02:16;14.68;74.54
75022;SHT31;63583;49.976;20.182;2023-10-31T03:04:42;14.78;74.17
75022;SHT31;63583;49.976;20.182;2023-10-31T03:07:08;14.85;73.55
75022;SHT31;63583;49.976;20.182;2023-10-31T03:09:33;14.91;73.18
75022;SHT31;63583;49.976;20.182;2023-10-31T03:11:59;14.91;73.74
75022;SHT31;63583;49.976;20.182;2023-10-31T03:14:25;14.87;74.02
75022;SHT31;63583;49.976;20.182;2023-10-31T03:16:51;14.85;74.53
75022;SHT31;63583;49.976;20.182;2023-10-31T03:19:16;14.80;74.54
75022;SHT31;63583;49.976;20.182;2023-10-31T03:21:42;14.72;74.57
75022;SHT31;63583;49.976;20.182;2023-10-31T03:24:08;14.68;74.86
75022;SHT31;63583;49.976;20.182;2023-10-31T03:26:35;14.60;75.89
75022;SHT31;63583;49.976;20.182;2023-10-31T03:29:00;14.54;76.24
75022;SHT31;63583;49.976;20.182;2023-10-31T03:31:26;14.50;76.76
75022;SHT31;63583;49.976;20.182;2023-10-31T03:33:52;14.41;77.30
75022;SHT31;63583;49.976;20.182;2023-10-31T03:36:19;14.34;77.79
75022;SHT31;63583;49.976;20.182;2023-10-31T03:38:45;14.32;77.41
75022;SHT31;63583;49.976;20.182;2023-10-31T03:41:11;14.36;76.67
75022;SHT31;63583;49.976;20.182;2023-10-31T03:43:36;14.29;76.77
75022;SHT31;63583;49.976;20.182;2023-10-31T03:46:02;14.20;77.19
75022;SHT31;63583;49.976;20.182;2023-10-31T03:48:28;14.13;78.03
75022;SHT31;63583;49.976;20.182;2023-10-31T03:50:54;14.09;78.15
75022;SHT31;63583;49.976;20.182;2023-10-31T03:53:19;14.05;78.42
75022;SHT31;63583;49.976;20.182;2023-10-31T03:55:45;14.05;77.63
75022;SHT31;63583;49.976;20.182;2023-10-31T03:58:11;14.48;74.32
75022;SHT31;63583;49.976;20.182;2023-10-31T04:00:39;14.48;74.86
75022;SHT31;63583;49.976;20.182;2023-10-31T04:03:04;14.38;75.27
75022;SHT31;63583;49.976;20.182;2023-10-31T04:05:30;14.23;75.57
75022;SHT31;63583;49.976;20.182;2023-10-31T04:07:56;14.56;74.28
75022;SHT31;63583;49.976;20.182;2023-10-31T04:10:22;14.40;75.72
75022;SHT31;63583;49.976;20.182;2023-10-31T04:12:48;14.30;74.86
75022;SHT31;63583;49.976;20.182;2023-10-31T04:15:13;14.32;74.99
75022;SHT31;63583;49.976;20.182;2023-10-31T04:17:39;14.30;74.00
75022;SHT31;63583;49.976;20.182;2023-10-31T04:20:06;14.33;73.60
75022;SHT31;63583;49.976;20.182;2023-10-31T04:22:32;14.37;73.37
75022;SHT31;63583;49.976;20.182;2023-10-31T04:24:57;14.43;73.18
75022;SHT31;63583;49.976;20.182;2023-10-31T04:27:23;14.51;72.91
75022;SHT31;63583;49.976;20.182;2023-10-31T04:29:49;14.54;72.53
75022;SHT31;63583;49.976;20.182;2023-10-31T04:32:14;14.65;71.96
75022;SHT31;63583;49.976;20.182;2023-10-31T04:34:40;14.71;71.73
75022;SHT31;63583;49.976;20.182;2023-10-31T04:37:06;14.78;71.30
75022;SHT31;63583;49.976;20.182;2023-10-31T04:39:32;14.87;70.91
75022;SHT31;63583;49.976;20.182;2023-10-31T04:41:57;14.89;70.89
75022;SHT31;63583;49.976;20.182;2023-10-31T04:44:23;14.98;71.03
75022;SHT31;63583;49.976;20.182;2023-10-31T04:46:49;14.98;71.02
75022;SHT31;63583;49.976;20.182;2023-10-31T04:49:15;15.05;70.35
75022;SHT31;63583;49.976;20.182;2023-10-31T04:51:41;15.11;69.92
75022;SHT31;63583;49.976;20.182;2023-10-31T04:54:07;15.20;69.48
75022;SHT31;63583;49.976;20.182;2023-10-31T04:56:33;15.18;69.53
75022;SHT31;63583;49.976;20.182;2023-10-31T04:58:59;15.23;69.67
75022;SHT31;63583;49.976;20.182;2023-10-31T05:01:25;15.28;69.26
75022;SHT31;63583;49.976;20.182;2023-10-31T05:03:50;15.36;69.05
75022;SHT31;63583;49.976;20.182;2023-10-31T05:06:21;15.30;69.57
75022;SHT31;63583;49.976;20.182;2023-10-31T05:08:48;15.16;70.87
75022;SHT31;63583;49.976;20.182;2023-10-31T05:11:16;15.05;70.74
75022;SHT31;63583;49.976;20.182;2023-10-31T05:13:44;15.01;70.55
75022;SHT31;63583;49.976;20.182;2023-10-31T05:16:10;14.95;70.62
75022;SHT31;63583;49.976;20.182;2023-10-31T05:18:38;14.91;71.02
75022;SHT31;63583;49.976;20.182;2023-10-31T05:21:04;14.91;70.97
75022;SHT31;63583;49.976;20.182;2023-10-31T05:23:31;14.89;69.71
75022;SHT31;63583;49.976;20.182;2023-10-31T05:25:56;15.26;68.31
75022;SHT31;63583;49.976;20.182;2023-10-31T05:28:22;15.29;68.43
75022;SHT31;63583;49.976;20.182;2023-10-31T05:30:49;15.33;69.79
75022;SHT31;63583;49.976;20.182;2023-10-31T05:33:15;15.36;68.76
75022;SHT31;63583;49.976;20.182;2023-10-31T05:35:41;15.25;70.85
75022;SHT31;63583;49.976;20.182;2023-10-31T05:38:07;15.19;70.80
75022;SHT31;63583;49.976;20.182;2023-10-31T05:40:33;15.20;69.66
75022;SHT31;63583;49.976;20.182;2023-10-31T05:43:01;15.18;69.49
75022;SHT31;63583;49.976;20.182;2023-10-31T05:45:28;15.12;69.74
75022;SHT31;63583;49.976;20.182;2023-10-31T05:47:54;15.15;69.83
75022;SHT31;63583;49.976;20.182;2023-10-31T05:50:19;15.16;69.21
75022;SHT31;63583;49.976;20.182;2023-10-31T05:52:45;15.11;70.52
75022;SHT31;63583;49.976;20.182;2023-10-31T05:55:11;15.03;70.20
75022;SHT31;63583;49.976;20.182;2023-10-31T05:57:37;15.06;68.88
75022;SHT31;63583;49.976;20.182;2023-10-31T06:00:03;15.13;68.86
75022;SHT31;63583;49.976;20.182;2023-10-31T06:02:29;15.20;68.03
75022;SHT31;63583;49.976;20.182;2023-10-31T06:04:55;15.26;68.70
75022;SHT31;63583;49.976;20.182;2023-10-31T06:07:21;15.20;68.68
75022;SHT31;63583;49.976;20.182;2023-10-31T06:09:47;15.20;68.74
75022;SHT31;63583;49.976;20.182;2023-10-31T06:12:12;15.15;69.62
75022;SHT31;63583;49.976;20.182;2023-10-31T06:14:38;15.11;68.82
75022;SHT31;63583;49.976;20.182;2023-10-31T06:17:04;15.09;69.41
75022;SHT31;63583;49.976;20.182;2023-10-31T06:19:34;15.05;69.37
75022;SHT31;63583;49.976;20.182;2023-10-31T06:21:59;15.06;69.06
75022;SHT31;63583;49.976;20.182;2023-10-31T06:24:25;15.01;68.98
75022;SHT31;63583;49.976;20.182;2023-10-31T06:26:51;15.05;68.88
75022;SHT31;63583;49.976;20.182;2023-10-31T06:29:17;15.08;68.98
75022;SHT31;63583;49.976;20.182;2023-10-31T06:31:43;15.08;69.28
75022;SHT31;63583;49.976;20.182;2023-10-31T06:34:09;15.08;69.26
75022;SHT31;63583;49.976;20.182;2023-10-31T06:36:35;15.08;68.61
75022;SHT31;63583;49.976;20.182;2023-10-31T06:39:00;15.12;68.53
75022;SHT31;63583;49.976;20.182;2023-10-31T06:41:26;15.15;68.17
75022;SHT31;63583;49.976;20.182;2023-10-31T06:43:52;15.19;67.99
75022;SHT31;63583;49.976;20.182;2023-10-31T06:46:18;15.23;67.98
75022;SHT31;63583;49.976;20.182;2023-10-31T06:48:43;15.26;67.76
75022;SHT31;63583;49.976;20.182;2023-10-31T06:51:09;15.33;67.48
75022;SHT31;63583;49.976;20.182;2023-10-31T06:53:35;15.70;65.66
75022;SHT31;63583;49.976;20.182;2023-10-31T06:56:00;15.71;66.28
75022;SHT31;63583;49.976;20.182;2023-10-31T06:58:26;15.81;66.28
75022;SHT31;63583;49.976;20.182;2023-10-31T07:00:52;15.70;67.70
75022;SHT31;63583;49.976;20.182;2023-10-31T07:03:17;15.61;68.67
75022;SHT31;63583;49.976;20.182;2023-10-31T07:05:43;15.74;67.98
75022;SHT31;63583;49.976;20.182;2023-10-31T07:08:09;15.77;66.69
75022;SHT31;63583;49.976;20.182;2023-10-31T07:10:35;15.73;67.00
75022;SHT31;63583;49.976;20.182;2023-10-31T07:13:00;15.77;67.33
75022;SHT31;63583;49.976;20.182;2023-10-31T07:15:26;15.74;67.24
75022;SHT31;63583;49.976;20.182;2023-10-31T07:17:52;15.68;68.74
75022;SHT31;63583;49.976;20.182;2023-10-31T07:20:18;15.63;69.93
75022;SHT31;63583;49.976;20.182;2023-10-31T07:22:45;15.49;70.65
75022;SHT31;63583;49.976;20.182;2023-10-31T07:25:11;15.40;71.04
75022;SHT31;63583;49.976;20.182;2023-10-31T07:27:37;15.39;70.38
75022;SHT31;63583;49.976;20.182;2023-10-31T07:30:06;15.22;70.91
75022;SHT31;63583;49.976;20.182;2023-10-31T07:32:32;15.18;71.08
75022;SHT31;63583;49.976;20.182;2023-10-31T07:34:58;15.30;70.35
75022;SHT31;63583;49.976;20.182;2023-10-31T07:37:23;15.23;70.26
75022;SHT31;63583;49.976;20.182;2023-10-31T07:39:49;15.29;70.12
75022;SHT31;63583;49.976;20.182;2023-10-31T07:42:16;15.35;70.47
75022;SHT31;63583;49.976;20.182;2023-10-31T07:44:42;15.50;69.67
75022;SHT31;63583;49.976;20.182;2023-10-31T07:47:08;15.53;68.87
75022;SHT31;63583;49.976;20.182;2023-10-31T07:49:34;15.67;68.35
75022;SHT31;63583;49.976;20.182;2023-10-31T07:51:59;15.77;67.90
75022;SHT31;63583;49.976;20.182;2023-10-31T07:54:25;16.12;66.92
75022;SHT31;63583;49.976;20.182;2023-10-31T07:56:51;16.77;64.89
75022;SHT31;63583;49.976;20.182;2023-10-31T07:59:17;17.21;63.40
75022;SHT31;63583;49.976;20.182;2023-10-31T08:01:42;17.46;63.03
75022;SHT31;63583;49.976;20.182;2023-10-31T08:04:08;17.68;62.43
75022;SHT31;63583;49.976;20.182;2023-10-31T08:06:34;17.90;61.79
75022;SHT31;63583;49.976;20.182;2023-10-31T08:09:00;18.10;61.72
75022;SHT31;63583;49.976;20.182;2023-10-31T08:11:26;18.08;62.32
75022;SHT31;63583;49.976;20.182;2023-10-31T08:13:52;18.07;61.77
75022;SHT31;63583;49.976;20.182;2023-10-31T08:16:18;18.25;60.78
75022;SHT31;63583;49.976;20.182;2023-10-31T08:18:45;18.33;61.36
75022;SHT31;63583;49.976;20.182;2023-10-31T08:21:12;18.33;61.39
75022;SHT31;63583;49.976;20.182;2023-10-31T08:23:38;18.31;61.77
75022;SHT31;63583;49.976;20.182;2023-10-31T08:26:04;18.34;61.70
75022;SHT31;63583;49.976;20.182;2023-10-31T08:28:30;18.41;61.90
75022;SHT31;63583;49.976;20.182;2023-10-31T08:30:57;18.41;61.91
75022;SHT31;63583;49.976;20.182;2023-10-31T08:33:23;18.41;62.30
75022;SHT31;63583;49.976;20.182;2023-10-31T08:35:49;18.34;61.98
75022;SHT31;63583;49.976;20.182;2023-10-31T08:38:16;18.30;62.44
75022;SHT31;63583;49.976;20.182;2023-10-31T08:40:42;18.37;62.39
75022;SHT31;63583;49.976;20.182;2023-10-31T08:43:08;18.37;62.39
75022;SHT31;63583;49.976;20.182;2023-10-31T08:45:33;18.40;61.69
75022;SHT31;63583;49.976;20.182;2023-10-31T08:48:00;18.40;62.18
75022;SHT31;63583;49.976;20.182;2023-10-31T08:50:26;18.47;61.19
75022;SHT31;63583;49.976;20.182;2023-10-31T08:52:52;18.49;61.04
75022;SHT31;63583;49.976;20.182;2023-10-31T08:55:18;18.45;61.83
75022;SHT31;63583;49.976;20.182;2023-10-31T08:57:44;18.54;60.98
75022;SHT31;63583;49.976;20.182;2023-10-31T09:00:10;18.48;61.62
75022;SHT31;63583;49.976;20.182;2023-10-31T09:02:36;18.47;61.50
75022;SHT31;63583;49.976;20.182;2023-10-31T09:05:01;18.58;60.75
75022;SHT31;63583;49.976;20.182;2023-10-31T09:07:27;18.58;61.00
75022;SHT31;63583;49.976;20.182;2023-10-31T09:09:53;18.58;61.58
75022;SHT31;63583;49.976;20.182;2023-10-31T09:12:19;18.52;61.53
75022;SHT31;63583;49.976;20.182;2023-10-31T09:14:45;18.54;61.98
75022;SHT31;63583;49.976;20.182;2023-10-31T09:17:11;18.47;61.58
75022;SHT31;63583;49.976;20.182;2023-10-31T09:19:36;18.56;61.51
75022;SHT31;63583;49.976;20.182;2023-10-31T09:22:02;18.58;61.79
75022;SHT31;63583;49.976;20.182;2023-10-31T09:24:28;18.56;61.96
75022;SHT31;63583;49.976;20.182;2023-10-31T09:26:54;18.61;61.53
75022;SHT31;63583;49.976;20.182;2023-10-31T09:29:20;18.62;60.81
75022;SHT31;63583;49.976;20.182;2023-10-31T09:31:46;18.47;60.80
75022;SHT31;63583;49.976;20.182;2023-10-31T09:34:13;18.49;60.00
75022;SHT31;63583;49.976;20.182;2023-10-31T09:36:39;18.58;60.04
75022;SHT31;63583;49.976;20.182;2023-10-31T09:39:05;18.56;60.19
75022;SHT31;63583;49.976;20.182;2023-10-31T09:41:31;18.52;59.98
75022;SHT31;63583;49.976;20.182;2023-10-31T09:44:00;18.58;59.94
75022;SHT31;63583;49.976;20.182;2023-10-31T09:46:28;18.55;60.02
75022;SHT31;63583;49.976;20.182;2023-10-31T09:48:55;18.47;60.47
75022;SHT31;63583;49.976;20.182;2023-10-31T09:51:21;18.47;60.53
75022;SHT31;63583;49.976;20.182;2023-10-31T09:53:47;18.56;60.71
75022;SHT31;63583;49.976;20.182;2023-10-31T09:56:14;18.69;60.06
75022;SHT31;63583;49.976;20.182;2023-10-31T09:58:40;18.79;60.85
75022;SHT31;63583;49.976;20.182;2023-10-31T10:01:07;18.79;61.30
75022;SHT31;63583;49.976;20.182;2023-10-31T10:03:32;18.81;60.77
75022;SHT31;63583;49.976;20.182;2023-10-31T10:05:59;18.90;60.22
75022;SHT31;63583;49.976;20.182;2023-10-31T10:08:24;18.92;61.20
75022;SHT31;63583;49.976;20.182;2023-10-31T10:10:50;18.98;60.29
75022;SHT31;63583;49.976;20.182;2023-10-31T10:13:17;19.07;60.04
75022;SHT31;63583;49.976;20.182;2023-10-31T10:15:47;19.21;59.68
75022;SHT31;63583;49.976;20.182;2023-10-31T10:18:27;19.17;60.60
75022;SHT31;63583;49.976;20.182;2023-10-31T10:20:55;19.16;60.57
75022;SHT31;63583;49.976;20.182;2023-10-31T10:23:20;18.93;60.10
75022;SHT31;63583;49.976;20.182;2023-10-31T10:25:49;18.89;60.92
75022;SHT31;63583;49.976;20.182;2023-10-31T10:28:14;18.90;60.45
75022;SHT31;63583;49.976;20.182;2023-10-31T10:30:40;18.65;61.09
75022;SHT31;63583;49.976;20.182;2023-10-31T10:33:06;18.61;60.81
75022;SHT31;63583;49.976;20.182;2023-10-31T10:35:32;18.65;61.18
75022;SHT31;63583;49.976;20.182;2023-10-31T10:37:59;18.49;61.64
75022;SHT31;63583;49.976;20.182;2023-10-31T10:40:26;18.56;61.45
75022;SHT31;63583;49.976;20.182;2023-10-31T10:42:55;18.42;62.45
75022;SHT31;63583;49.976;20.182;2023-10-31T10:45:25;18.49;62.35
75022;SHT31;63583;49.976;20.182;2023-10-31T10:47:51;18.48;62.05
75022;SHT31;63583;49.976;20.182;2023-10-31T10:50:19;18.51;62.48
75022;SHT31;63583;49.976;20.182;2023-10-31T10:53:23;18.49;62.27
75022;SHT31;63583;49.976;20.182;2023-10-31T10:55:56;18.49;63.44
75022;SHT31;63583;49.976;20.182;2023-10-31T10:58:55;18.68;62.71
75022;SHT31;63583;49.976;20.182;2023-10-31T11:01:21;18.61;63.29
75022;SHT31;63583;49.976;20.182;2023-10-31T11:03:48;18.58;63.48
75022;SHT31;63583;49.976;20.182;2023-10-31T11:06:14;18.58;63.32
75022;SHT31;63583;49.976;20.182;2023-10-31T11:08:41;18.59;63.51
75022;SHT31;63583;49.976;20.182;2023-10-31T11:11:08;18.63;63.72
75022;SHT31;63583;49.976;20.182;2023-10-31T11:13:34;18.62;65.01
75022;SHT31;63583;49.976;20.182;2023-10-31T11:16:06;18.58;63.35
75022;SHT31;63583;49.976;20.182;2023-10-31T11:18:35;18.58;63.48
75022;SHT31;63583;49.976;20.182;2023-10-31T11:21:01;18.44;63.68
75022;SHT31;63583;49.976;20.182;2023-10-31T11:23:27;18.37;63.65
75022;SHT31;63583;49.976;20.182;2023-10-31T11:25:55;18.31;63.53
75022;SHT31;63583;49.976;20.182;2023-10-31T11:28:20;18.15;63.96
75022;SHT31;63583;49.976;20.182;2023-10-31T11:30:50;18.18;64.68
75022;SHT31;63583;49.976;20.182;2023-10-31T11:33:19;18.01;64.71
75022;SHT31;63583;49.976;20.182;2023-10-31T11:35:50;17.90;64.94
75022;SHT31;63583;49.976;20.182;2023-10-31T11:38:15;17.87;65.27
75022;SHT31;63583;49.976;20.182;2023-10-31T11:43:10;17.82;65.49
75022;SHT31;63583;49.976;20.182;2023-10-31T11:45:41;17.76;66.18
75022;SHT31;63583;49.976;20.182;2023-10-31T11:48:09;17.58;65.27
75022;SHT31;63583;49.976;20.182;2023-10-31T11:50:37;17.45;65.84
75022;SHT31;63583;49.976;20.182;2023-10-31T11:53:13;17.35;65.88
75022;SHT31;63583;49.976;20.182;2023-10-31T11:55:44;17.45;65.14
75022;SHT31;63583;49.976;20.182;2023-10-31T11:58:24;17.28;65.59
75022;SHT31;63583;49.976;20.182;2023-10-31T12:00:56;17.22;65.94
75022;SHT31;63583;49.976;20.182;2023-10-31T12:03:26;17.20;66.21
75022;SHT31;63583;49.976;20.182;2023-10-31T12:05:56;17.04;66.89
75022;SHT31;63583;49.976;20.182;2023-10-31T12:08:38;17.01;66.81
75022;SHT31;63583;49.976;20.182;2023-10-31T12:11:24;17.11;67.81
75022;SHT31;63583;49.976;20.182;2023-10-31T12:13:54;17.14;66.74
75022;SHT31;63583;49.976;20.182;2023-10-31T12:16:24;17.11;67.29
75022;SHT31;63583;49.976;20.182;2023-10-31T12:19:01;17.15;66.13
75022;SHT31;63583;49.976;20.182;2023-10-31T12:21:54;17.11;67.05
75022;SHT31;63583;49.976;20.182;2023-10-31T12:24:21;17.18;65.77
75022;SHT31;63583;49.976;20.182;2023-10-31T12:26:47;17.25;64.38
75022;SHT31;63583;49.976;20.182;2023-10-31T12:29:20;17.27;65.73
75022;SHT31;63583;49.976;20.182;2023-10-31T12:31:52;17.24;66.05
75022;SHT31;63583;49.976;20.182;2023-10-31T12:34:19;17.27;65.70
75022;SHT31;63583;49.976;20.182;2023-10-31T12:36:47;17.31;65.44
75022;SHT31;63583;49.976;20.182;2023-10-31T12:39:13;17.25;65.76
75022;SHT31;63583;49.976;20.182;2023-10-31T12:41:40;17.35;65.57
75022;SHT31;63583;49.976;20.182;2023-10-31T12:44:07;17.41;66.12
75022;SHT31;63583;49.976;20.182;2023-10-31T12:46:40;17.32;66.40
75022;SHT31;63583;49.976;20.182;2023-10-31T12:49:17;17.28;66.05
75022;SHT31;63583;49.976;20.182;2023-10-31T12:56:59;17.38;64.99
75022;SHT31;63583;49.976;20.182;2023-10-31T12:59:24;17.20;65.06
75022;SHT31;63583;49.976;20.182;2023-10-31T13:01:50;17.06;65.72
75022;SHT31;63583;49.976;20.182;2023-10-31T13:04:24;17.01;66.45
75022;SHT31;63583;49.976;20.182;2023-10-31T13:09:21;16.90;67.22
75022;SHT31;63583;49.976;20.182;2023-10-31T13:11:47;16.76;67.92
75022;SHT31;63583;49.976;20.182;2023-10-31T13:14:13;16.59;70.64
75022;SHT31;63583;49.976;20.182;2023-10-31T13:16:39;16.43;72.56
75022;SHT31;63583;49.976;20.182;2023-10-31T13:19:04;16.21;72.97
75022;SHT31;63583;49.976;20.182;2023-10-31T13:21:30;16.08;74.00
75022;SHT31;63583;49.976;20.182;2023-10-31T13:23:56;16.01;74.41
75022;SHT31;63583;49.976;20.182;2023-10-31T13:26:22;15.90;75.50
75022;SHT31;63583;49.976;20.182;2023-10-31T13:28:47;15.90;74.89
75022;SHT31;63583;49.976;20.182;2023-10-31T13:31:13;15.83;75.70
75022;SHT31;63583;49.976;20.182;2023-10-31T13:33:40;15.76;75.18
75022;SHT31;63583;49.976;20.182;2023-10-31T13:36:06;15.68;76.06
75022;SHT31;63583;49.976;20.182;2023-10-31T13:38:32;15.57;77.15
75022;SHT31;63583;49.976;20.182;2023-10-31T13:40:57;15.60;76.95
75022;SHT31;63583;49.976;20.182;2023-10-31T13:43:23;15.59;77.00
75022;SHT31;63583;49.976;20.182;2023-10-31T13:45:49;15.50;78.64
75022;SHT31;63583;49.976;20.182;2023-10-31T13:48:15;15.38;80.33
75022;SHT31;63583;49.976;20.182;2023-10-31T13:50:40;15.30;80.90
75022;SHT31;63583;49.976;20.182;2023-10-31T13:53:07;15.02;83.22
75022;SHT31;63583;49.976;20.182;2023-10-31T13:55:33;15.02;82.95
75022;SHT31;63583;49.976;20.182;2023-10-31T13:57:59;14.89;83.91
75022;SHT31;63583;49.976;20.182;2023-10-31T14:00:24;14.78;85.06
75022;SHT31;63583;49.976;20.182;2023-10-31T14:02:50;14.77;84.08
75022;SHT31;63583;49.976;20.182;2023-10-31T14:05:16;14.64;84.62
75022;SHT31;63583;49.976;20.182;2023-10-31T14:07:42;14.59;85.44
75022;SHT31;63583;49.976;20.182;2023-10-31T14:10:07;14.50;85.98
75022;SHT31;63583;49.976;20.182;2023-10-31T14:12:33;14.33;86.71
75022;SHT31;63583;49.976;20.182;2023-10-31T14:14:59;14.24;87.14
75022;SHT31;63583;49.976;20.182;2023-10-31T14:17:25;14.20;86.95
75022;SHT31;63583;49.976;20.182;2023-10-31T14:19:51;14.19;86.25
75022;SHT31;63583;49.976;20.182;2023-10-31T14:22:16;14.20;86.19
75022;SHT31;63583;49.976;20.182;2023-10-31T14:24:42;14.13;86.76
75022;SHT31;63583;49.976;20.182;2023-10-31T14:27:08;14.09;87.06
75022;SHT31;63583;49.976;20.182;2023-10-31T14:29:33;14.06;86.75
75022;SHT31;63583;49.976;20.182;2023-10-31T14:32:09;14.09;86.87
75022;SHT31;63583;49.976;20.182;2023-10-31T14:34:35;13.98;87.67
75022;SHT31;63583;49.976;20.182;2023-10-31T14:37:01;13.90;87.84
75022;SHT31;63583;49.976;20.182;2023-10-31T14:39:27;13.90;87.57
75022;SHT31;63583;49.976;20.182;2023-10-31T14:41:53;13.92;87.54
75022;SHT31;63583;49.976;20.182;2023-10-31T14:44:18;13.94;88.18
75022;SHT31;63583;49.976;20.182;2023-10-31T14:46:44;13.86;88.59
75022;SHT31;63583;49.976;20.182;2023-10-31T14:49:10;13.85;89.23
75022;SHT31;63583;49.976;20.182;2023-10-31T14:51:36;13.88;88.97
75022;SHT31;63583;49.976;20.182;2023-10-31T14:54:02;14.01;88.15
75022;SHT31;63583;49.976;20.182;2023-10-31T14:56:28;14.05;87.76
75022;SHT31;63583;49.976;20.182;2023-10-31T14:58:55;13.92;88.64
75022;SHT31;63583;49.976;20.182;2023-10-31T15:01:21;13.85;89.24
75022;SHT31;63583;49.976;20.182;2023-10-31T15:03:46;13.89;89.59
75022;SHT31;63583;49.976;20.182;2023-10-31T15:06:13;13.78;90.74
75022;SHT31;63583;49.976;20.182;2023-10-31T15:08:40;13.71;91.53
75022;SHT31;63583;49.976;20.182;2023-10-31T15:11:06;13.62;92.25
75022;SHT31;63583;49.976;20.182;2023-10-31T15:13:32;13.58;92.12
75022;SHT31;63583;49.976;20.182;2023-10-31T15:15:58;13.58;91.29
75022;SHT31;63583;49.976;20.182;2023-10-31T15:18:24;13.57;90.49
75022;SHT31;63583;49.976;20.182;2023-10-31T15:20:49;13.61;89.70
75022;SHT31;63583;49.976;20.182;2023-10-31T15:23:15;13.59;89.61